sensor_id;sensor_type;location;lat;lon;timestamp;pressure;altitude;pressure_sealevel;temperature;humidity
41886;BME280;27567;43.084;25.616;2023-07-31T00:02:05;97761.84;;;20.82;100.00
41886;BME280;27567;43.084;25.616;2023-07-31T00:04:49;97764.78;;;20.86;100.00
41886;BME280;27567;43.084;25.616;2023-07-31T00:07:33;97756.38;;;20.82;100.00
41886;BME280;27567;43.084;25.616;2023-07-31T00:10:17;97747.84;;;20.94;100.00
41886;BME280;27567;43.084;25.616;2023-07-31T00:13:01;97748.00;;;21.13;100.00
41886;BME280;27567;43.084;25.616;2023-07-31T00:15:45;97747.94;;;21.19;100.00
41886;BME280;27567;43.084;25.616;2023-07-31T00:18:29;97731.91;;;21.12;100.00
41886;BME280;27567;43.084;25.616;2023-07-31T00:21:13;97736.28;;;21.08;100.00
41886;BME280;27567;43.084;25.616;2023-07-31T00:23:57;97720.78;;;21.08;100.00
41886;BME280;27567;43.084;25.616;2023-07-31T00:26:41;97724.81;;;21.11;100.00
41886;BME280;27567;43.084;25.616;2023-07-31T00:29:25;97730.78;;;21.18;100.00
41886;BME280;27567;43.084;25.616;2023-07-31T00:32:09;97728.44;;;21.36;100.00
41886;BME280;27567;43.084;25.616;2023-07-31T00:34:53;97718.44;;;21.26;100.00
41886;BME280;27567;43.084;25.616;2023-07-31T00:37:37;97722.44;;;21.33;100.00
41886;BME280;27567;43.084;25.616;2023-07-31T00:40:21;97728.38;;;21.11;100.00
41886;BME280;27567;43.084;25.616;2023-07-31T00:43:05;97722.91;;;20.82;100.00
41886;BME280;27567;43.084;25.616;2023-07-31T00:45:49;97707.03;;;20.89;100.00
41886;BME280;27567;43.084;25.616;2023-07-31T00:48:33;97699.25;;;21.07;100.00
41886;BME280;27567;43.084;25.616;2023-07-31T00:51:19;97697.31;;;21.12;100.00
41886;BME280;27567;43.084;25.616;2023-07-31T00:54:03;97700.25;;;21.16;100.00
41886;BME280;27567;43.084;25.616;2023-07-31T00:56:47;97706.25;;;21.18;100.00
41886;BME280;27567;43.084;25.616;2023-07-31T00:59:33;97690.06;;;21.27;100.00
41886;BME280;27567;43.084;25.616;2023-07-31T01:02:17;97692.03;;;21.21;100.00
41886;BME280;27567;43.084;25.616;2023-07-31T01:05:05;97695.78;;;21.30;100.00
41886;BME280;27567;43.084;25.616;2023-07-31T01:07:54;97690.56;;;21.34;100.00
41886;BME280;27567;43.084;25.616;2023-07-31T01:10:51;97688.41;;;21.31;100.00
41886;BME280;27567;43.084;25.616;2023-07-31T01:13:39;97676.22;;;21.47;100.00
41886;BME280;27567;43.084;25.616;2023-07-31T01:16:25;97688.25;;;21.46;100.00
41886;BME280;27567;43.084;25.616;2023-07-31T01:19:11;97683.34;;;21.43;100.00
41886;BME280;27567;43.084;25.616;2023-07-31T01:28:50;97680.13;;;21.41;100.00
41886;BME280;27567;43.084;25.616;2023-07-31T01:31:36;97667.88;;;21.39;100.00
41886;BME280;27567;43.084;25.616;2023-07-31T01:34:28;97682.16;;;21.55;100.00
41886;BME280;27567;43.084;25.616;2023-07-31T01:37:12;97667.47;;;21.51;100.00
41886;BME280;27567;43.084;25.616;2023-07-31T01:39:57;97664.41;;;21.57;100.00
41886;BME280;27567;43.084;25.616;2023-07-31T01:42:40;97668.16;;;21.67;100.00
41886;BME280;27567;43.084;25.616;2023-07-31T01:45:24;97666.00;;;21.64;100.00
41886;BME280;27567;43.084;25.616;2023-07-31T01:48:08;97667.63;;;21.65;100.00
41886;BME280;27567;43.084;25.616;2023-07-31T01:50:52;97673.31;;;21.68;100.00
41886;BME280;27567;43.084;25.616;2023-07-31T01:53:36;97665.75;;;21.60;100.00
41886;BME280;27567;43.084;25.616;2023-07-31T01:56:20;97673.41;;;21.58;100.00
41886;BME280;27567;43.084;25.616;2023-07-31T01:59:04;97669.09;;;21.52;100.00
41886;BME280;27567;43.084;25.616;2023-07-31T02:01:48;97662.84;;;21.51;100.00
41886;BME280;27567;43.084;25.616;2023-07-31T02:04:32;97658.53;;;21.45;100.00
41886;BME280;27567;43.084;25.616;2023-07-31T02:07:16;97667.31;;;21.42;100.00
41886;BME280;27567;43.084;25.616;2023-07-31T02:10:00;97669.16;;;21.46;100.00
41886;BME280;27567;43.084;25.616;2023-07-31T02:12:45;97655.59;;;21.41;100.00
41886;BME280;27567;43.084;25.616;2023-07-31T02:15:32;97663.00;;;21.36;100.00
41886;BME280;27567;43.084;25.616;2023-07-31T02:18:16;97657.84;;;21.58;100.00
41886;BME280;27567;43.084;25.616;2023-07-31T02:21:00;97655.59;;;21.41;100.00
41886;BME280;27567;43.084;25.616;2023-07-31T02:23:44;97648.16;;;21.47;100.00
41886;BME280;27567;43.084;25.616;2023-07-31T02:26:28;97655.78;;;21.50;100.00
41886;BME280;27567;43.084;25.616;2023-07-31T02:29:12;97646.00;;;21.44;100.00
41886;BME280;27567;43.084;25.616;2023-07-31T02:31:56;97655.25;;;21.48;100.00
41886;BME280;27567;43.084;25.616;2023-07-31T02:34:40;97658.25;;;21.46;100.00
41886;BME280;27567;43.084;25.616;2023-07-31T02:37:25;97669.16;;;21.46;100.00
41886;BME280;27567;43.084;25.616;2023-07-31T02:40:10;97662.69;;;21.42;100.00
41886;BME280;27567;43.084;25.616;2023-07-31T02:42:54;97664.53;;;21.47;100.00
41886;BME280;27567;43.084;25.616;2023-07-31T02:45:38;97665.44;;;21.37;100.00
41886;BME280;27567;43.084;25.616;2023-07-31T02:48:22;97680.16;;;21.07;100.00
41886;BME280;27567;43.084;25.616;2023-07-31T02:51:06;97678.34;;;20.97;100.00
41886;BME280;27567;43.084;25.616;2023-07-31T02:53:50;97680.97;;;20.78;100.00
41886;BME280;27567;43.084;25.616;2023-07-31T02:56:34;97680.84;;;20.53;100.00
41886;BME280;27567;43.084;25.616;2023-07-31T02:59:18;97680.06;;;20.48;100.00
41886;BME280;27567;43.084;25.616;2023-07-31T03:02:03;97668.69;;;20.35;100.00
41886;BME280;27567;43.084;25.616;2023-07-31T03:04:47;97679.16;;;20.18;100.00
41886;BME280;27567;43.084;25.616;2023-07-31T03:07:31;97678.59;;;20.21;100.00
41886;BME280;27567;43.084;25.616;2023-07-31T03:10:15;97677.50;;;20.22;100.00
41886;BME280;27567;43.084;25.616;2023-07-31T03:13:00;97684.00;;;20.31;100.00
41886;BME280;27567;43.084;25.616;2023-07-31T03:15:44;97690.00;;;20.28;100.00
41886;BME280;27567;43.084;25.616;2023-07-31T03:18:28;97688.38;;;20.27;100.00
41886;BME280;27567;43.084;25.616;2023-07-31T03:21:12;97688.94;;;20.24;100.00
41886;BME280;27567;43.084;25.616;2023-07-31T03:23:57;97698.19;;;20.23;100.00
41886;BME280;27567;43.084;25.616;2023-07-31T03:26:40;97694.81;;;20.36;100.00
41886;BME280;27567;43.084;25.616;2023-07-31T03:29:27;97702.75;;;20.33;100.00
41886;BME280;27567;43.084;25.616;2023-07-31T03:32:12;97699.47;;;20.36;100.00
41886;BME280;27567;43.084;25.616;2023-07-31T03:34:56;97702.75;;;20.33;100.00
41886;BME280;27567;43.084;25.616;2023-07-31T03:37:40;97701.44;;;20.25;100.00
41886;BME280;27567;43.084;25.616;2023-07-31T03:40:24;97705.50;;;20.27;100.00
41886;BME280;27567;43.084;25.616;2023-07-31T03:43:08;97703.81;;;20.42;100.00
41886;BME280;27567;43.084;25.616;2023-07-31T03:45:52;97714.59;;;20.57;100.00
41886;BME280;27567;43.084;25.616;2023-07-31T03:48:37;97701.28;;;20.51;100.00
41886;BME280;27567;43.084;25.616;2023-07-31T03:51:21;97707.16;;;20.68;100.00
41886;BME280;27567;43.084;25.616;2023-07-31T03:54:06;97716.22;;;20.58;100.00
41886;BME280;27567;43.084;25.616;2023-07-31T03:56:51;97713.78;;;20.57;100.00
41886;BME280;27567;43.084;25.616;2023-07-31T03:59:35;97710.81;;;20.48;100.00
41886;BME280;27567;43.084;25.616;2023-07-31T04:02:22;97705.13;;;20.45;100.00
41886;BME280;27567;43.084;25.616;2023-07-31T04:04:58;97717.88;;;20.49;100.00
41886;BME280;27567;43.084;25.616;2023-07-31T04:07:42;97715.91;;;20.60;100.00
41886;BME280;27567;43.084;25.616;2023-07-31T04:10:27;97719.16;;;20.67;100.00
41886;BME280;27567;43.084;25.616;2023-07-31T04:13:11;97721.28;;;20.81;100.00
41886;BME280;27567;43.084;25.616;2023-07-31T04:15:55;97727.16;;;20.93;100.00
41886;BME280;27567;43.084;25.616;2023-07-31T04:18:39;97725.09;;;21.14;100.00
41886;BME280;27567;43.084;25.616;2023-07-31T04:21:24;97721.78;;;21.47;100.00
41886;BME280;27567;43.084;25.616;2023-07-31T04:24:08;97726.16;;;21.72;100.00
41886;BME280;27567;43.084;25.616;2023-07-31T04:26:53;97720.47;;;21.93;100.00
41886;BME280;27567;43.084;25.616;2023-07-31T04:29:37;97730.06;;;21.90;100.00
41886;BME280;27567;43.084;25.616;2023-07-31T04:32:24;97727.22;;;22.01;100.00
41886;BME280;27567;43.084;25.616;2023-07-31T04:35:08;97730.81;;;22.20;100.00
41886;BME280;27567;43.084;25.616;2023-07-31T04:37:52;97731.84;;;22.25;100.00
41886;BME280;27567;43.084;25.616;2023-07-31T04:40:37;97744.75;;;22.38;100.00
41886;BME280;27567;43.084;25.616;2023-07-31T04:43:21;97746.50;;;22.29;100.00
41886;BME280;27567;43.084;25.616;2023-07-31T04:46:05;97752.66;;;22.20;100.00
41886;BME280;27567;43.084;25.616;2023-07-31T04:48:49;97750.00;;;22.34;100.00
41886;BME280;27567;43.084;25.616;2023-07-31T04:51:33;97744.00;;;22.57;100.00
41886;BME280;27567;43.084;25.616;2023-07-31T04:54:18;97746.59;;;22.67;100.00
41886;BME280;27567;43.084;25.616;2023-07-31T04:57:04;97744.44;;;22.40;100.00
41886;BME280;27567;43.084;25.616;2023-07-31T04:59:50;97757.63;;;22.37;100.00
41886;BME280;27567;43.084;25.616;2023-07-31T05:02:36;97755.94;;;22.17;100.00
41886;BME280;27567;43.084;25.616;2023-07-31T05:05:20;97753.59;;;22.11;100.00
41886;BME280;27567;43.084;25.616;2023-07-31T05:08:04;97748.38;;;22.33;100.00
41886;BME280;27567;43.084;25.616;2023-07-31T05:10:48;97745.81;;;21.99;100.00
41886;BME280;27567;43.084;25.616;2023-07-31T05:13:33;97749.53;;;22.27;100.00
41886;BME280;27567;43.084;25.616;2023-07-31T05:16:16;97742.41;;;22.31;100.00
41886;BME280;27567;43.084;25.616;2023-07-31T05:19:01;97753.78;;;22.39;100.00
41886;BME280;27567;43.084;25.616;2023-07-31T05:21:44;97763.84;;;22.19;100.00
41886;BME280;27567;43.084;25.616;2023-07-31T05:24:28;97769.66;;;21.88;100.00
41886;BME280;27567;43.084;25.616;2023-07-31T05:27:13;97768.16;;;21.76;100.00
41886;BME280;27567;43.084;25.616;2023-07-31T05:30:02;97761.38;;;21.74;100.00
41886;BME280;27567;43.084;25.616;2023-07-31T05:32:47;97759.22;;;21.71;100.00
41886;BME280;27567;43.084;25.616;2023-07-31T05:35:31;97760.00;;;21.71;100.00
41886;BME280;27567;43.084;25.616;2023-07-31T05:38:17;97765.53;;;21.66;100.00
41886;BME280;27567;43.084;25.616;2023-07-31T05:41:00;97763.78;;;21.75;100.00
41886;BME280;27567;43.084;25.616;2023-07-31T05:43:42;97766.88;;;21.93;100.00
41886;BME280;27567;43.084;25.616;2023-07-31T05:46:27;97768.59;;;22.08;100.00
41886;BME280;27567;43.084;25.616;2023-07-31T05:49:11;97776.22;;;21.87;100.00
41886;BME280;27567;43.084;25.616;2023-07-31T05:51:55;97783.50;;;21.67;100.00
41886;BME280;27567;43.084;25.616;2023-07-31T05:54:39;97770.19;;;21.60;100.00
41886;BME280;27567;43.084;25.616;2023-07-31T05:57:23;97775.84;;;21.69;100.00
41886;BME280;27567;43.084;25.616;2023-07-31T06:00:08;97775.41;;;21.62;100.00
41886;BME280;27567;43.084;25.616;2023-07-31T06:02:52;97772.28;;;21.74;100.00
41886;BME280;27567;43.084;25.616;2023-07-31T06:05:36;97780.50;;;21.69;100.00
41886;BME280;27567;43.084;25.616;2023-07-31T06:08:20;97783.56;;;21.62;100.00
41886;BME280;27567;43.084;25.616;2023-07-31T06:11:05;97781.19;;;21.50;100.00
41886;BME280;27567;43.084;25.616;2023-07-31T06:13:50;97783.28;;;21.64;100.00
41886;BME280;27567;43.084;25.616;2023-07-31T06:16:34;97783.28;;;21.58;100.00
41886;BME280;27567;43.084;25.616;2023-07-31T06:19:18;97785.03;;;21.49;100.00
41886;BME280;27567;43.084;25.616;2023-07-31T06:22:04;97793.22;;;21.49;100.00
41886;BME280;27567;43.084;25.616;2023-07-31T06:24:48;97793.22;;;21.49;100.00
41886;BME280;27567;43.084;25.616;2023-07-31T06:27:32;97794.72;;;21.60;100.00
41886;BME280;27567;43.084;25.616;2023-07-31T06:30:16;97801.00;;;21.66;100.00
41886;BME280;27567;43.084;25.616;2023-07-31T06:33:01;97800.34;;;21.74;100.00
41886;BME280;27567;43.084;25.616;2023-07-31T06:35:45;97798.97;;;22.01;100.00
41886;BME280;27567;43.084;25.616;2023-07-31T06:38:29;97798.97;;;22.50;100.00
41886;BME280;27567;43.084;25.616;2023-07-31T06:41:13;97802.03;;;22.87;100.00
41886;BME280;27567;43.084;25.616;2023-07-31T06:43:57;97805.94;;;23.00;100.00
41886;BME280;27567;43.084;25.616;2023-07-31T06:46:42;97806.38;;;22.49;100.00
41886;BME280;27567;43.084;25.616;2023-07-31T06:49:26;97808.22;;;22.05;100.00
41886;BME280;27567;43.084;25.616;2023-07-31T06:52:10;97809.09;;;22.01;100.00
41886;BME280;27567;43.084;25.616;2023-07-31T06:55:20;97813.69;;;22.05;100.00
41886;BME280;27567;43.084;25.616;2023-07-31T06:58:05;97813.13;;;22.28;100.00
41886;BME280;27567;43.084;25.616;2023-07-31T07:00:49;97813.84;;;22.14;100.00
41886;BME280;27567;43.084;25.616;2023-07-31T07:03:34;97814.50;;;22.30;100.00
41886;BME280;27567;43.084;25.616;2023-07-31T07:06:18;97816.75;;;22.23;100.00
41886;BME280;27567;43.084;25.616;2023-07-31T07:09:02;97819.50;;;21.99;100.00
41886;BME280;27567;43.084;25.616;2023-07-31T07:11:47;97815.78;;;22.14;100.00
41886;BME280;27567;43.084;25.616;2023-07-31T07:14:31;97817.09;;;22.16;100.00
41886;BME280;27567;43.084;25.616;2023-07-31T07:17:15;97818.09;;;22.26;100.00
41886;BME280;27567;43.084;25.616;2023-07-31T07:20:00;97810.59;;;22.12;100.00
41886;BME280;27567;43.084;25.616;2023-07-31T07:22:44;97817.56;;;21.99;100.00
41886;BME280;27567;43.084;25.616;2023-07-31T07:25:28;97810.59;;;22.36;100.00
41886;BME280;27567;43.084;25.616;2023-07-31T07:28:13;97819.94;;;22.30;100.00
41886;BME280;27567;43.084;25.616;2023-07-31T07:30:57;97812.50;;;22.60;100.00
41886;BME280;27567;43.084;25.616;2023-07-31T07:33:41;97811.53;;;23.08;100.00
41886;BME280;27567;43.084;25.616;2023-07-31T07:36:27;97821.91;;;22.73;100.00
41886;BME280;27567;43.084;25.616;2023-07-31T07:39:11;97814.34;;;23.41;100.00
41886;BME280;27567;43.084;25.616;2023-07-31T07:41:55;97817.34;;;23.59;100.00
41886;BME280;27567;43.084;25.616;2023-07-31T07:44:39;97823.13;;;23.58;100.00
41886;BME280;27567;43.084;25.616;2023-07-31T07:47:23;97820.47;;;24.13;100.00
41886;BME280;27567;43.084;25.616;2023-07-31T07:50:07;97817.22;;;23.97;100.00
41886;BME280;27567;43.084;25.616;2023-07-31T07:52:51;97825.25;;;24.78;100.00
41886;BME280;27567;43.084;25.616;2023-07-31T07:55:35;97820.81;;;25.73;100.00
41886;BME280;27567;43.084;25.616;2023-07-31T07:58:19;97815.78;;;25.06;100.00
41886;BME280;27567;43.084;25.616;2023-07-31T08:01:03;97820.13;;;24.85;100.00
41886;BME280;27567;43.084;25.616;2023-07-31T08:03:48;97810.81;;;24.44;100.00
41886;BME280;27567;43.084;25.616;2023-07-31T08:06:32;97817.13;;;24.58;100.00
41886;BME280;27567;43.084;25.616;2023-07-31T08:09:16;97816.09;;;24.82;100.00
41886;BME280;27567;43.084;25.616;2023-07-31T08:11:59;97820.78;;;24.40;100.00
41886;BME280;27567;43.084;25.616;2023-07-31T08:14:46;97822.94;;;24.29;100.00
41886;BME280;27567;43.084;25.616;2023-07-31T08:17:30;97818.91;;;23.79;100.00
41886;BME280;27567;43.084;25.616;2023-07-31T08:20:14;97822.25;;;23.76;100.00
41886;BME280;27567;43.084;25.616;2023-07-31T08:22:58;97831.69;;;23.84;100.00
41886;BME280;27567;43.084;25.616;2023-07-31T08:25:42;97839.22;;;24.62;100.00
41886;BME280;27567;43.084;25.616;2023-07-31T08:28:26;97831.78;;;25.27;100.00
41886;BME280;27567;43.084;25.616;2023-07-31T08:31:10;97823.69;;;25.99;100.00
41886;BME280;27567;43.084;25.616;2023-07-31T08:33:55;97826.59;;;26.03;100.00
41886;BME280;27567;43.084;25.616;2023-07-31T08:36:40;97833.28;;;26.10;100.00
41886;BME280;27567;43.084;25.616;2023-07-31T08:39:23;97818.69;;;26.41;100.00
41886;BME280;27567;43.084;25.616;2023-07-31T08:42:08;97828.69;;;26.37;100.00
41886;BME280;27567;43.084;25.616;2023-07-31T08:44:54;97817.28;;;26.62;100.00
41886;BME280;27567;43.084;25.616;2023-07-31T08:47:39;97819.72;;;26.63;100.00
41886;BME280;27567;43.084;25.616;2023-07-31T08:50:23;97816.81;;;26.68;100.00
41886;BME280;27567;43.084;25.616;2023-07-31T08:53:07;97814.72;;;27.71;100.00
41886;BME280;27567;43.084;25.616;2023-07-31T08:55:52;97812.13;;;28.52;100.00
41886;BME280;27567;43.084;25.616;2023-07-31T08:58:38;97822.56;;;28.76;100.00
41886;BME280;27567;43.084;25.616;2023-07-31T09:01:23;97821.84;;;28.58;100.00
41886;BME280;27567;43.084;25.616;2023-07-31T09:04:09;97817.50;;;28.18;100.00
41886;BME280;27567;43.084;25.616;2023-07-31T09:06:57;97813.34;;;27.95;100.00
41886;BME280;27567;43.084;25.616;2023-07-31T09:09:45;97818.47;;;28.23;100.00
41886;BME280;27567;43.084;25.616;2023-07-31T09:12:30;97819.00;;;27.98;100.00
41886;BME280;27567;43.084;25.616;2023-07-31T09:15:14;97811.38;;;26.95;100.00
41886;BME280;27567;43.084;25.616;2023-07-31T09:18:00;97814.63;;;27.14;100.00
41886;BME280;27567;43.084;25.616;2023-07-31T09:21:05;97816.97;;;26.63;100.00
41886;BME280;27567;43.084;25.616;2023-07-31T09:23:50;97816.72;;;27.00;100.00
41886;BME280;27567;43.084;25.616;2023-07-31T09:26:37;97817.94;;;26.76;100.00
41886;BME280;27567;43.084;25.616;2023-07-31T09:29:21;97819.31;;;26.96;100.00
41886;BME280;27567;43.084;25.616;2023-07-31T09:32:15;97820.44;;;26.29;100.00
41886;BME280;27567;43.084;25.616;2023-07-31T09:35:00;97811.38;;;26.95;100.00
41886;BME280;27567;43.084;25.616;2023-07-31T09:37:44;97807.16;;;27.15;100.00
41886;BME280;27567;43.084;25.616;2023-07-31T09:40:36;97811.38;;;27.30;100.00
41886;BME280;27567;43.084;25.616;2023-07-31T09:43:22;97811.50;;;26.72;100.00
41886;BME280;27567;43.084;25.616;2023-07-31T09:46:13;97808.31;;;26.96;100.00
41886;BME280;27567;43.084;25.616;2023-07-31T09:49:10;97803.72;;;26.74;100.00
41886;BME280;27567;43.084;25.616;2023-07-31T09:51:55;97798.56;;;27.34;100.00
41886;BME280;27567;43.084;25.616;2023-07-31T09:54:39;97793.13;;;28.29;100.00
41886;BME280;27567;43.084;25.616;2023-07-31T09:57:23;97798.75;;;27.55;100.00
41886;BME280;27567;43.084;25.616;2023-07-31T10:00:10;97801.69;;;26.89;100.00
41886;BME280;27567;43.084;25.616;2023-07-31T10:02:58;97795.16;;;26.67;100.00
41886;BME280;27567;43.084;25.616;2023-07-31T10:05:45;97792.28;;;27.16;100.00
41886;BME280;27567;43.084;25.616;2023-07-31T10:08:34;97796.03;;;26.94;100.00
41886;BME280;27567;43.084;25.616;2023-07-31T10:11:21;97795.56;;;26.34;100.00
41886;BME280;27567;43.084;25.616;2023-07-31T10:14:07;97792.56;;;26.13;100.00
41886;BME280;27567;43.084;25.616;2023-07-31T10:16:52;97794.94;;;26.37;100.00
41886;BME280;27567;43.084;25.616;2023-07-31T10:19:37;97784.72;;;26.29;100.00
41886;BME280;27567;43.084;25.616;2023-07-31T10:22:22;97778.06;;;26.88;100.00
41886;BME280;27567;43.084;25.616;2023-07-31T10:25:08;97789.34;;;27.30;100.00
41886;BME280;27567;43.084;25.616;2023-07-31T10:27:53;97779.25;;;28.08;100.00
41886;BME280;27567;43.084;25.616;2023-07-31T10:30:38;97783.13;;;30.48;100.00
41886;BME280;27567;43.084;25.616;2023-07-31T10:33:23;97781.44;;;31.37;100.00
41886;BME280;27567;43.084;25.616;2023-07-31T10:36:20;97796.78;;;29.69;100.00
41886;BME280;27567;43.084;25.616;2023-07-31T10:39:04;97778.03;;;28.35;100.00
41886;BME280;27567;43.084;25.616;2023-07-31T10:42:12;97791.28;;;28.93;100.00
41886;BME280;27567;43.084;25.616;2023-07-31T10:45:07;97786.63;;;27.12;100.00
41886;BME280;27567;43.084;25.616;2023-07-31T10:48:00;97782.31;;;26.36;100.00
41886;BME280;27567;43.084;25.616;2023-07-31T10:50:56;97777.19;;;26.78;100.00
41886;BME280;27567;43.084;25.616;2023-07-31T10:53:40;97775.31;;;26.88;100.00
41886;BME280;27567;43.084;25.616;2023-07-31T10:56:25;97769.94;;;26.65;100.00
41886;BME280;27567;43.084;25.616;2023-07-31T10:59:09;97775.09;;;26.75;100.00
41886;BME280;27567;43.084;25.616;2023-07-31T11:01:56;97774.16;;;27.06;100.00
41886;BME280;27567;43.084;25.616;2023-07-31T11:04:41;97773.91;;;26.32;100.00
41886;BME280;27567;43.084;25.616;2023-07-31T11:07:25;97773.66;;;26.11;100.00
41886;BME280;27567;43.084;25.616;2023-07-31T11:10:09;97763.69;;;26.15;100.00
41886;BME280;27567;43.084;25.616;2023-07-31T11:12:53;97762.22;;;26.18;100.00
41886;BME280;27567;43.084;25.616;2023-07-31T11:15:37;97766.63;;;26.28;100.00
41886;BME280;27567;43.084;25.616;2023-07-31T11:18:21;97766.53;;;26.10;100.00
41886;BME280;27567;43.084;25.616;2023-07-31T11:21:05;97775.63;;;25.79;100.00
41886;BME280;27567;43.084;25.616;2023-07-31T11:23:51;97761.50;;;26.03;100.00
41886;BME280;27567;43.084;25.616;2023-07-31T11:26:36;97776.81;;;26.27;100.00
41886;BME280;27567;43.084;25.616;2023-07-31T11:29:20;97773.91;;;26.32;100.00
41886;BME280;27567;43.084;25.616;2023-07-31T11:32:05;97746.44;;;29.51;100.00
41886;BME280;27567;43.084;25.616;2023-07-31T11:34:55;97760.13;;;28.93;100.00
41886;BME280;27567;43.084;25.616;2023-07-31T11:37:42;97748.00;;;27.74;100.00
41886;BME280;27567;43.084;25.616;2023-07-31T11:40:27;97750.25;;;28.19;100.00
41886;BME280;27567;43.084;25.616;2023-07-31T11:43:14;97744.91;;;28.65;100.00
41886;BME280;27567;43.084;25.616;2023-07-31T11:46:01;97746.81;;;28.95;100.00
41886;BME280;27567;43.084;25.616;2023-07-31T11:48:50;97735.31;;;29.27;100.00
41886;BME280;27567;43.084;25.616;2023-07-31T11:51:34;97744.97;;;28.35;100.00
41886;BME280;27567;43.084;25.616;2023-07-31T11:54:18;97740.00;;;29.26;100.00
41886;BME280;27567;43.084;25.616;2023-07-31T11:57:02;97726.81;;;29.65;100.00
41886;BME280;27567;43.084;25.616;2023-07-31T11:59:46;97719.81;;;30.18;100.00
41886;BME280;27567;43.084;25.616;2023-07-31T12:02:31;97727.59;;;30.65;100.00
41886;BME280;27567;43.084;25.616;2023-07-31T12:05:15;97725.41;;;30.58;100.00
41886;BME280;27567;43.084;25.616;2023-07-31T12:08:00;97705.28;;;29.96;100.00
41886;BME280;27567;43.084;25.616;2023-07-31T12:10:44;97714.38;;;29.13;100.00
41886;BME280;27567;43.084;25.616;2023-07-31T12:13:30;97702.75;;;31.86;98.29
41886;BME280;27567;43.084;25.616;2023-07-31T12:16:15;97704.88;;;31.00;100.00
41886;BME280;27567;43.084;25.616;2023-07-31T12:18:59;97696.41;;;31.09;100.00
41886;BME280;27567;43.084;25.616;2023-07-31T12:21:42;97688.66;;;34.19;77.73
41886;BME280;27567;43.084;25.616;2023-07-31T12:24:27;97697.94;;;33.10;84.97
41886;BME280;27567;43.084;25.616;2023-07-31T12:27:12;97696.25;;;32.66;89.06
41886;BME280;27567;43.084;25.616;2023-07-31T12:29:56;97707.66;;;34.70;74.97
41886;BME280;27567;43.084;25.616;2023-07-31T12:32:40;97696.56;;;32.45;88.13
41886;BME280;27567;43.084;25.616;2023-07-31T12:35:24;97687.81;;;35.06;71.59
41886;BME280;27567;43.084;25.616;2023-07-31T12:38:08;97690.44;;;33.34;82.18
41886;BME280;27567;43.084;25.616;2023-07-31T12:40:52;97691.09;;;32.84;86.02
41886;BME280;27567;43.084;25.616;2023-07-31T12:43:38;97693.41;;;33.25;84.03
41886;BME280;27567;43.084;25.616;2023-07-31T12:46:22;97681.88;;;31.12;100.00
41886;BME280;27567;43.084;25.616;2023-07-31T12:49:08;97691.84;;;30.07;100.00
41886;BME280;27567;43.084;25.616;2023-07-31T12:51:53;97684.03;;;32.71;95.08
41886;BME280;27567;43.084;25.616;2023-07-31T12:54:38;97709.63;;;28.80;100.00
41886;BME280;27567;43.084;25.616;2023-07-31T12:57:21;97698.16;;;26.93;100.00
41886;BME280;27567;43.084;25.616;2023-07-31T13:00:06;97693.28;;;26.72;100.00
41886;BME280;27567;43.084;25.616;2023-07-31T13:02:50;97691.84;;;26.83;100.00
41886;BME280;27567;43.084;25.616;2023-07-31T13:05:35;97684.56;;;29.52;100.00
41886;BME280;27567;43.084;25.616;2023-07-31T13:08:19;97678.16;;;30.92;100.00
41886;BME280;27567;43.084;25.616;2023-07-31T13:11:04;97679.34;;;31.68;100.00
41886;BME280;27567;43.084;25.616;2023-07-31T13:13:48;97684.06;;;31.67;99.28
41886;BME280;27567;43.084;25.616;2023-07-31T13:16:32;97687.47;;;33.03;90.64
41886;BME280;27567;43.084;25.616;2023-07-31T13:19:16;97678.56;;;35.36;73.68
41886;BME280;27567;43.084;25.616;2023-07-31T13:22:00;97676.00;;;33.48;83.41
41886;BME280;27567;43.084;25.616;2023-07-31T13:24:44;97688.72;;;32.66;93.81
41886;BME280;27567;43.084;25.616;2023-07-31T13:27:29;97681.31;;;31.35;100.00
41886;BME280;27567;43.084;25.616;2023-07-31T13:30:13;97683.72;;;31.08;100.00
41886;BME280;27567;43.084;25.616;2023-07-31T13:32:58;97679.44;;;31.11;100.00
41886;BME280;27567;43.084;25.616;2023-07-31T13:35:42;97670.56;;;30.07;100.00
41886;BME280;27567;43.084;25.616;2023-07-31T13:38:26;97677.00;;;28.18;100.00
41886;BME280;27567;43.084;25.616;2023-07-31T13:41:10;97675.78;;;28.92;100.00
41886;BME280;27567;43.084;25.616;2023-07-31T13:43:54;97673.16;;;28.53;100.00
41886;BME280;27567;43.084;25.616;2023-07-31T13:46:38;97672.34;;;28.74;100.00
41886;BME280;27567;43.084;25.616;2023-07-31T13:49:23;97660.66;;;29.10;100.00
41886;BME280;27567;43.084;25.616;2023-07-31T13:52:07;97677.56;;;28.75;100.00
41886;BME280;27567;43.084;25.616;2023-07-31T13:54:52;97678.22;;;30.26;100.00
41886;BME280;27567;43.084;25.616;2023-07-31T13:57:37;97674.69;;;30.01;100.00
41886;BME280;27567;43.084;25.616;2023-07-31T14:00:23;97661.25;;;30.81;100.00
41886;BME280;27567;43.084;25.616;2023-07-31T14:03:08;97663.06;;;32.34;98.73
41886;BME280;27567;43.084;25.616;2023-07-31T14:05:55;97673.72;;;30.75;100.00
41886;BME280;27567;43.084;25.616;2023-07-31T14:08:39;97679.53;;;29.21;100.00
41886;BME280;27567;43.084;25.616;2023-07-31T14:11:24;97678.38;;;29.80;100.00
41886;BME280;27567;43.084;25.616;2023-07-31T14:14:10;97672.53;;;31.81;100.00
41886;BME280;27567;43.084;25.616;2023-07-31T14:16:55;97670.66;;;33.16;93.26
41886;BME280;27567;43.084;25.616;2023-07-31T14:19:40;97672.94;;;33.33;91.00